createdAt,value
2023-04-27T00:00:24.438Z,0.000000
2023-04-27T00:01:00.193Z,0.000000
2023-04-27T00:02:00.387Z,0.000000
2023-04-27T00:03:00.431Z,0.000000
2023-04-27T00:04:00.506Z,0.000000
2023-04-27T00:05:03.304Z,0.000000
2023-04-27T00:06:00.818Z,0.000000
2023-04-27T00:07:00.229Z,0.000000
2023-04-27T00:08:01.352Z,0.000000
2023-04-27T00:09:00.253Z,11.250000
2023-04-27T00:10:03.343Z,11.250000
2023-04-27T00:11:00.243Z,11.250000
2023-04-27T00:12:00.338Z,0.000000
2023-04-27T00:13:00.248Z,0.000000
2023-04-27T00:14:00.327Z,0.000000
2023-04-27T00:15:02.807Z,0.000000
2023-04-27T00:16:00.393Z,0.000000
2023-04-27T00:17:00.266Z,0.000000
2023-04-27T00:18:00.412Z,0.000000
2023-04-27T00:19:00.294Z,0.000000
2023-04-27T00:20:04.740Z,0.000000
2023-04-27T00:21:00.306Z,0.000000
2023-04-27T00:22:00.588Z,0.000000
2023-04-27T00:23:00.299Z,0.000000
2023-04-27T00:24:00.398Z,56.250000
2023-04-27T00:25:02.870Z,56.250000
2023-04-27T00:26:00.403Z,56.250000
2023-04-27T00:27:00.324Z,0.000000
2023-04-27T00:28:00.420Z,0.000000
2023-04-27T00:29:00.340Z,0.000000
2023-04-27T00:30:03.362Z,0.000000
2023-04-27T00:31:00.355Z,0.000000
2023-04-27T00:32:00.471Z,0.000000
2023-04-27T00:33:00.565Z,0.000000
2023-04-27T00:34:00.456Z,0.000000
2023-04-27T00:35:02.840Z,0.000000
2023-04-27T00:36:00.459Z,0.000000
2023-04-27T00:37:00.394Z,0.000000
2023-04-27T00:38:00.753Z,0.000000
2023-04-27T00:39:00.413Z,0.000000
2023-04-27T00:40:03.419Z,11.250000
2023-04-27T00:41:00.437Z,11.250000
2023-04-27T00:42:00.728Z,22.500000
2023-04-27T00:43:00.428Z,22.500000
2023-04-27T00:44:00.498Z,22.500000
2023-04-27T00:45:03.636Z,0.000000
2023-04-27T00:46:00.783Z,0.000000
2023-04-27T00:47:00.465Z,0.000000
2023-04-27T00:48:00.616Z,0.000000
2023-04-27T00:49:00.474Z,0.000000
2023-04-27T00:50:03.505Z,0.000000
2023-04-27T00:51:00.505Z,0.000000
2023-04-27T00:52:00.598Z,0.000000
2023-04-27T00:53:00.503Z,0.000000
2023-04-27T00:54:00.742Z,0.000000
2023-04-27T00:55:03.125Z,0.000000
2023-04-27T00:56:00.581Z,0.000000
2023-04-27T00:57:00.550Z,0.000000
2023-04-27T00:58:00.652Z,0.000000
2023-04-27T00:59:00.542Z,0.000000
2023-04-27T01:00:03.381Z,0.000000
2023-04-27T01:01:00.613Z,0.000000
2023-04-27T01:02:00.669Z,11.250000
2023-04-27T01:03:00.867Z,11.250000
2023-04-27T01:04:00.879Z,11.250000
2023-04-27T01:05:03.064Z,11.250000
2023-04-27T01:06:00.709Z,11.250000
2023-04-27T01:07:00.603Z,0.000000
2023-04-27T01:08:00.745Z,0.000000
2023-04-27T01:09:00.660Z,0.000000
2023-04-27T01:10:03.684Z,0.000000
2023-04-27T01:11:00.622Z,0.000000
2023-04-27T01:12:00.707Z,0.000000
2023-04-27T01:13:00.632Z,0.000000
2023-04-27T01:14:00.708Z,0.000000
2023-04-27T01:15:03.071Z,0.000000
2023-04-27T01:16:00.885Z,0.000000
2023-04-27T01:17:00.697Z,0.000000
2023-04-27T01:18:00.778Z,0.000000
2023-04-27T01:19:00.667Z,0.000000
2023-04-27T01:20:03.762Z,33.750000
2023-04-27T01:21:00.692Z,33.750000
2023-04-27T01:22:00.792Z,0.000000
2023-04-27T01:23:00.709Z,0.000000
2023-04-27T01:24:00.782Z,0.000000
2023-04-27T01:25:03.410Z,0.000000
2023-04-27T01:26:00.775Z,0.000000
2023-04-27T01:27:00.724Z,0.000000
2023-04-27T01:28:00.808Z,0.000000
2023-04-27T01:29:00.739Z,0.000000
2023-04-27T01:30:03.786Z,0.000000
2023-04-27T01:31:00.800Z,0.000000
2023-04-27T01:32:00.821Z,0.000000
2023-04-27T01:33:00.779Z,0.000000
2023-04-27T01:34:00.859Z,0.000000
2023-04-27T01:35:03.281Z,0.000000
2023-04-27T01:36:00.862Z,0.000000
2023-04-27T01:37:00.785Z,0.000000
2023-04-27T01:38:00.881Z,0.000000
2023-04-27T01:39:00.799Z,0.000000
2023-04-27T01:40:04.683Z,0.000000
2023-04-27T01:41:00.832Z,0.000000
2023-04-27T01:42:00.892Z,0.000000
2023-04-27T01:43:00.849Z,0.000000
2023-04-27T01:44:00.904Z,0.000000
2023-04-27T01:45:04.965Z,0.000000
2023-04-27T01:46:01.021Z,0.000000
2023-04-27T01:47:00.858Z,0.000000
2023-04-27T01:48:00.959Z,0.000000
2023-04-27T01:49:00.850Z,0.000000
2023-04-27T01:50:03.871Z,0.000000
2023-04-27T01:51:00.903Z,0.000000
2023-04-27T01:52:00.994Z,0.000000
2023-04-27T01:53:00.896Z,0.000000
2023-04-27T01:54:01.035Z,0.000000
2023-04-27T01:55:03.338Z,0.000000
2023-04-27T01:56:00.967Z,22.500000
2023-04-27T01:57:00.921Z,22.500000
2023-04-27T01:58:01.005Z,0.000000
2023-04-27T01:59:00.934Z,0.000000
2023-04-27T02:00:04.185Z,0.000000
2023-04-27T02:01:00.974Z,0.000000
2023-04-27T02:02:01.091Z,0.000000
2023-04-27T02:03:01.167Z,0.000000
2023-04-27T02:04:01.311Z,0.000000
2023-04-27T02:05:03.475Z,0.000000
2023-04-27T02:06:01.117Z,0.000000
2023-04-27T02:07:00.998Z,0.000000
2023-04-27T02:08:01.106Z,0.000000
2023-04-27T02:09:01.024Z,0.000000
2023-04-27T02:10:04.045Z,0.000000
2023-04-27T02:11:01.034Z,0.000000
2023-04-27T02:12:01.163Z,0.000000
2023-04-27T02:13:01.073Z,0.000000
2023-04-27T02:14:01.121Z,0.000000
2023-04-27T02:15:03.397Z,0.000000
2023-04-27T02:16:01.184Z,0.000000
2023-04-27T02:17:01.102Z,0.000000
2023-04-27T02:18:01.191Z,0.000000
2023-04-27T02:19:01.079Z,0.000000
2023-04-27T02:20:04.506Z,0.000000
2023-04-27T02:21:01.117Z,0.000000
2023-04-27T02:22:01.184Z,0.000000
2023-04-27T02:23:01.089Z,11.250000
2023-04-27T02:24:01.187Z,11.250000
2023-04-27T02:25:03.686Z,11.250000
2023-04-27T02:26:01.215Z,0.000000
2023-04-27T02:27:01.136Z,0.000000
2023-04-27T02:28:01.433Z,0.000000
2023-04-27T02:29:01.152Z,33.750000
2023-04-27T02:30:04.241Z,33.750000
2023-04-27T02:31:01.171Z,56.250000
2023-04-27T02:32:01.256Z,56.250000
2023-04-27T02:33:01.258Z,33.750000
2023-04-27T02:34:01.249Z,33.750000
2023-04-27T02:35:04.504Z,33.750000
2023-04-27T02:36:01.286Z,33.750000
2023-04-27T02:37:01.179Z,33.750000
2023-04-27T02:38:01.246Z,33.750000
2023-04-27T02:39:00.208Z,0.000000
2023-04-27T02:40:03.244Z,0.000000
2023-04-27T02:41:00.218Z,0.000000
2023-04-27T02:42:01.328Z,0.000000
2023-04-27T02:43:00.209Z,0.000000
2023-04-27T02:44:00.277Z,0.000000
2023-04-27T02:45:02.928Z,56.250000
2023-04-27T02:46:00.296Z,56.250000
2023-04-27T02:47:00.341Z,56.250000
2023-04-27T02:48:00.366Z,11.250000
2023-04-27T02:49:00.254Z,11.250000
2023-04-27T02:50:03.173Z,11.250000
2023-04-27T02:51:00.271Z,11.250000
2023-04-27T02:52:00.370Z,11.250000
2023-04-27T02:53:00.275Z,0.000000
2023-04-27T02:54:00.358Z,0.000000
2023-04-27T02:55:02.828Z,0.000000
2023-04-27T02:56:00.371Z,0.000000
2023-04-27T02:57:00.317Z,0.000000
2023-04-27T02:58:00.430Z,78.750000
2023-04-27T02:59:00.323Z,78.750000
2023-04-27T03:00:03.897Z,78.750000
2023-04-27T03:01:00.374Z,11.250000
2023-04-27T03:02:00.422Z,11.250000
2023-04-27T03:03:00.536Z,0.000000
2023-04-27T03:04:00.933Z,0.000000
2023-04-27T03:05:02.842Z,0.000000
2023-04-27T03:06:00.457Z,22.500000
2023-04-27T03:07:00.377Z,22.500000
2023-04-27T03:08:00.455Z,22.500000
2023-04-27T03:09:00.427Z,45.000000
2023-04-27T03:10:03.362Z,45.000000
2023-04-27T03:11:00.411Z,45.000000
2023-04-27T03:12:00.512Z,0.000000
2023-04-27T03:13:00.416Z,0.000000
2023-04-27T03:14:01.518Z,0.000000
2023-04-27T03:15:02.766Z,0.000000
2023-04-27T03:16:00.576Z,0.000000
2023-04-27T03:17:00.448Z,0.000000
2023-04-27T03:18:32.957Z,45.000000
2023-04-27T03:19:00.449Z,45.000000
2023-04-27T03:20:03.241Z,45.000000
2023-04-27T03:21:00.475Z,0.000000
2023-04-27T03:22:00.575Z,0.000000
2023-04-27T03:23:00.476Z,0.000000
2023-04-27T03:24:00.572Z,22.500000
2023-04-27T03:25:02.832Z,22.500000
2023-04-27T03:29:00.499Z,11.250000
2023-04-27T03:30:06.083Z,11.250000
2023-04-27T03:31:00.530Z,11.250000
2023-04-27T03:32:00.641Z,22.500000
2023-04-27T03:33:00.623Z,22.500000
2023-04-27T03:34:00.705Z,45.000000
2023-04-27T03:35:03.062Z,45.000000
2023-04-27T03:36:00.732Z,45.000000
2023-04-27T03:37:00.601Z,56.250000
2023-04-27T03:38:00.661Z,56.250000
2023-04-27T03:39:00.618Z,56.250000
2023-04-27T03:40:03.943Z,56.250000
2023-04-27T03:41:00.609Z,45.000000
2023-04-27T03:42:00.691Z,45.000000
2023-04-27T03:43:00.624Z,45.000000
2023-04-27T03:44:00.734Z,33.750000
2023-04-27T03:45:03.306Z,33.750000
2023-04-27T03:46:00.895Z,33.750000
2023-04-27T03:47:00.651Z,45.000000
2023-04-27T03:48:00.795Z,45.000000
2023-04-27T03:49:00.652Z,22.500000
2023-04-27T03:50:03.796Z,22.500000
2023-04-27T03:51:00.685Z,67.500000
2023-04-27T03:52:00.770Z,67.500000
2023-04-27T03:53:00.676Z,67.500000
2023-04-27T03:54:00.806Z,78.750000
2023-04-27T03:55:03.170Z,78.750000
2023-04-27T03:56:00.756Z,78.750000
2023-04-27T03:57:00.720Z,56.250000
2023-04-27T03:58:00.798Z,56.250000
2023-04-27T03:59:00.712Z,56.250000
2023-04-27T04:00:04.077Z,33.750000
2023-04-27T04:01:00.758Z,33.750000
2023-04-27T04:02:01.901Z,0.000000
2023-04-27T04:03:00.896Z,0.000000
2023-04-27T04:04:00.958Z,67.500000
2023-04-27T04:05:03.164Z,67.500000
2023-04-27T04:06:00.817Z,67.500000
2023-04-27T04:07:00.737Z,45.000000
2023-04-27T04:08:00.865Z,45.000000
2023-04-27T04:09:00.784Z,56.250000
2023-04-27T04:10:03.794Z,56.250000
2023-04-27T04:11:00.779Z,56.250000
2023-04-27T04:12:00.875Z,67.500000
2023-04-27T04:13:00.789Z,67.500000
2023-04-27T04:14:00.874Z,45.000000
2023-04-27T04:15:03.238Z,45.000000
2023-04-27T04:16:00.926Z,45.000000
2023-04-27T04:17:00.821Z,56.250000
2023-04-27T04:18:00.972Z,56.250000
2023-04-27T04:19:00.825Z,45.000000
2023-04-27T04:20:03.906Z,45.000000
2023-04-27T04:21:00.871Z,45.000000
2023-04-27T04:22:00.930Z,0.000000
2023-04-27T04:23:00.847Z,0.000000
2023-04-27T04:24:00.962Z,0.000000
2023-04-27T04:25:04.265Z,0.000000
2023-04-27T04:26:00.949Z,0.000000
2023-04-27T04:27:00.898Z,0.000000
2023-04-27T04:28:00.978Z,0.000000
2023-04-27T04:29:00.884Z,0.000000
2023-04-27T04:30:03.801Z,11.250000
2023-04-27T04:31:00.984Z,11.250000
2023-04-27T04:32:00.998Z,11.250000
2023-04-27T04:33:00.954Z,0.000000
2023-04-27T04:34:08.254Z,0.000000
2023-04-27T04:35:04.066Z,0.000000
2023-04-27T04:36:01.027Z,0.000000
2023-04-27T04:37:01.074Z,0.000000
2023-04-27T04:38:01.006Z,0.000000
2023-04-27T04:39:00.950Z,0.000000
2023-04-27T04:40:04.013Z,0.000000
2023-04-27T04:41:00.967Z,0.000000
2023-04-27T04:42:01.047Z,0.000000
2023-04-27T04:43:00.958Z,22.500000
2023-04-27T04:44:01.072Z,22.500000
2023-04-27T04:45:03.747Z,45.000000
2023-04-27T04:46:01.218Z,45.000000
2023-04-27T04:47:01.085Z,0.000000
2023-04-27T04:48:01.152Z,0.000000
2023-04-27T04:49:00.988Z,0.000000
2023-04-27T04:50:03.962Z,0.000000
2023-04-27T04:51:01.042Z,0.000000
2023-04-27T04:52:01.110Z,0.000000
2023-04-27T04:53:01.022Z,22.500000
2023-04-27T04:54:01.973Z,22.500000
2023-04-27T04:55:03.729Z,22.500000
2023-04-27T04:56:01.094Z,33.750000
2023-04-27T04:57:01.073Z,33.750000
2023-04-27T04:58:01.120Z,33.750000
2023-04-27T04:59:01.090Z,33.750000
2023-04-27T05:00:04.317Z,45.000000
2023-04-27T05:01:01.120Z,45.000000
2023-04-27T05:02:01.373Z,45.000000
2023-04-27T05:03:01.340Z,0.000000
2023-04-27T05:04:16.977Z,0.000000
2023-04-27T05:05:03.661Z,0.000000
2023-04-27T05:06:01.237Z,0.000000
2023-04-27T05:07:01.166Z,0.000000
2023-04-27T05:08:01.226Z,0.000000
2023-04-27T05:09:01.172Z,0.000000
2023-04-27T05:10:04.286Z,0.000000
2023-04-27T05:11:01.180Z,0.000000
2023-04-27T05:12:00.254Z,0.000000
2023-04-27T05:13:00.185Z,33.750000
2023-04-27T05:14:00.267Z,33.750000
2023-04-27T05:15:02.747Z,33.750000
2023-04-27T05:16:00.883Z,0.000000
2023-04-27T05:17:00.216Z,0.000000
2023-04-27T05:18:00.327Z,22.500000
2023-04-27T05:19:00.224Z,22.500000
2023-04-27T05:20:10.087Z,22.500000
2023-04-27T05:21:00.229Z,33.750000
2023-04-27T05:22:00.334Z,33.750000
2023-04-27T05:23:00.242Z,45.000000
2023-04-27T05:24:00.808Z,45.000000
2023-04-27T05:25:02.664Z,45.000000
2023-04-27T05:26:00.374Z,78.750000
2023-04-27T05:27:02.148Z,78.750000
2023-04-27T05:28:00.363Z,78.750000
2023-04-27T05:29:00.292Z,78.750000
2023-04-27T05:30:03.356Z,78.750000
2023-04-27T05:31:00.299Z,56.250000
2023-04-27T05:32:00.594Z,56.250000
2023-04-27T05:33:00.391Z,11.250000
2023-04-27T05:34:15.991Z,11.250000
2023-04-27T05:35:02.947Z,11.250000
2023-04-27T05:36:00.888Z,22.500000
2023-04-27T05:37:00.347Z,22.500000
2023-04-27T05:38:00.502Z,56.250000
2023-04-27T05:39:00.387Z,56.250000
2023-04-27T05:40:03.511Z,56.250000
2023-04-27T05:41:00.453Z,45.000000
2023-04-27T05:42:00.460Z,45.000000
2023-04-27T05:43:00.385Z,45.000000
2023-04-27T05:44:00.939Z,45.000000
2023-04-27T05:45:02.773Z,56.250000
2023-04-27T05:46:00.588Z,56.250000
2023-04-27T05:47:00.471Z,56.250000
2023-04-27T05:48:00.577Z,45.000000
2023-04-27T05:49:00.432Z,45.000000
2023-04-27T05:50:03.684Z,33.750000
2023-04-27T05:51:00.466Z,33.750000
2023-04-27T05:52:00.560Z,33.750000
2023-04-27T05:53:00.488Z,90.000000
2023-04-27T05:54:00.578Z,90.000000
2023-04-27T05:55:02.999Z,33.750000
2023-04-27T05:56:00.549Z,33.750000
2023-04-27T05:57:00.533Z,33.750000
2023-04-27T05:58:08.278Z,33.750000
2023-04-27T05:59:02.555Z,33.750000
2023-04-27T06:00:03.779Z,33.750000
2023-04-27T06:01:00.552Z,67.500000
2023-04-27T06:02:00.941Z,67.500000
2023-04-27T06:03:00.832Z,33.750000
2023-04-27T06:04:00.804Z,33.750000
2023-04-27T06:05:03.062Z,33.750000
2023-04-27T06:06:01.046Z,33.750000
2023-04-27T06:07:00.585Z,33.750000
2023-04-27T06:08:00.639Z,78.750000
2023-04-27T06:09:00.594Z,78.750000
2023-04-27T06:10:03.833Z,78.750000
2023-04-27T06:11:00.622Z,78.750000
2023-04-27T06:12:00.716Z,78.750000
2023-04-27T06:13:00.607Z,78.750000
2023-04-27T06:14:00.889Z,90.000000
2023-04-27T06:15:03.972Z,90.000000
2023-04-27T06:16:00.992Z,67.500000
2023-04-27T06:17:00.630Z,67.500000
2023-04-27T06:18:00.871Z,45.000000
2023-04-27T06:19:00.758Z,45.000000
2023-04-27T06:20:03.421Z,45.000000
2023-04-27T06:21:00.664Z,45.000000
2023-04-27T06:22:00.758Z,45.000000
2023-04-27T06:23:00.666Z,45.000000
2023-04-27T06:24:00.870Z,22.500000
2023-04-27T06:25:03.595Z,22.500000
2023-04-27T06:26:00.757Z,45.000000
2023-04-27T06:27:00.713Z,45.000000
2023-04-27T06:28:00.783Z,45.000000
2023-04-27T06:29:00.704Z,45.000000
2023-04-27T06:30:03.431Z,45.000000
2023-04-27T06:31:00.723Z,22.500000
2023-04-27T06:32:00.923Z,22.500000
2023-04-27T06:33:00.799Z,22.500000
2023-04-27T06:34:01.019Z,56.250000
2023-04-27T06:35:03.345Z,56.250000
2023-04-27T06:36:00.831Z,56.250000
2023-04-27T06:37:00.744Z,67.500000
2023-04-27T06:38:00.923Z,67.500000
2023-04-27T06:39:00.756Z,56.250000
2023-04-27T06:40:03.737Z,56.250000
2023-04-27T06:41:00.761Z,67.500000
2023-04-27T06:42:00.892Z,67.500000
2023-04-27T06:43:00.775Z,67.500000
2023-04-27T06:44:01.080Z,56.250000
2023-04-27T06:45:03.287Z,56.250000
2023-04-27T06:46:01.163Z,56.250000
2023-04-27T06:47:00.825Z,56.250000
2023-04-27T06:48:01.128Z,56.250000
2023-04-27T06:49:00.808Z,56.250000
2023-04-27T06:50:04.485Z,56.250000
2023-04-27T06:51:00.877Z,45.000000
2023-04-27T06:52:01.099Z,45.000000
2023-04-27T06:53:00.848Z,45.000000
2023-04-27T06:54:01.990Z,33.750000
2023-04-27T06:55:03.466Z,33.750000
2023-04-27T06:56:00.975Z,33.750000
2023-04-27T06:57:00.865Z,45.000000
2023-04-27T06:58:02.049Z,45.000000
2023-04-27T06:59:00.888Z,56.250000
2023-04-27T07:00:05.092Z,56.250000
2023-04-27T07:01:00.890Z,56.250000
2023-04-27T07:02:02.186Z,56.250000
2023-04-27T07:03:01.080Z,56.250000
2023-04-27T07:04:01.091Z,56.250000
2023-04-27T07:05:03.421Z,56.250000
2023-04-27T07:06:00.996Z,78.750000
2023-04-27T07:07:00.923Z,78.750000
2023-04-27T07:08:04.045Z,78.750000
2023-04-27T07:09:00.935Z,67.500000
2023-04-27T07:10:04.947Z,67.500000
2023-04-27T07:11:00.954Z,56.250000
2023-04-27T07:12:01.030Z,56.250000
2023-04-27T07:13:00.966Z,78.750000
2023-04-27T07:14:01.078Z,78.750000
2023-04-27T07:15:03.386Z,78.750000
2023-04-27T07:16:01.138Z,67.500000
2023-04-27T07:17:00.977Z,67.500000
2023-04-27T07:18:02.185Z,67.500000
2023-04-27T07:19:01.049Z,67.500000
2023-04-27T07:20:04.102Z,67.500000
2023-04-27T07:21:01.021Z,67.500000
2023-04-27T07:22:01.093Z,56.250000
2023-04-27T07:23:01.012Z,56.250000
2023-04-27T07:24:01.155Z,67.500000
2023-04-27T07:25:03.713Z,67.500000
2023-04-27T07:27:06.288Z,56.250000
2023-04-27T07:28:01.467Z,56.250000
2023-04-27T07:29:04.231Z,56.250000
2023-04-27T07:30:06.024Z,33.750000
2023-04-27T07:31:01.089Z,33.750000
2023-04-27T07:32:08.499Z,33.750000
2023-04-27T07:33:01.186Z,33.750000
2023-04-27T07:34:02.204Z,33.750000
2023-04-27T07:35:03.533Z,45.000000
2023-04-27T07:36:01.161Z,45.000000
2023-04-27T07:37:01.070Z,45.000000
2023-04-27T07:38:01.450Z,45.000000
2023-04-27T07:39:01.104Z,45.000000
2023-04-27T07:40:03.932Z,33.750000
2023-04-27T07:41:01.143Z,33.750000
2023-04-27T07:43:06.255Z,67.500000
2023-04-27T07:44:02.277Z,67.500000
2023-04-27T07:45:03.615Z,56.250000
2023-04-27T07:46:01.272Z,56.250000
2023-04-27T07:47:01.194Z,56.250000
2023-04-27T07:48:02.440Z,56.250000
2023-04-27T07:49:01.175Z,56.250000
2023-04-27T07:50:04.470Z,56.250000
2023-04-27T07:51:01.177Z,56.250000
2023-04-27T07:52:01.231Z,56.250000
2023-04-27T07:53:01.161Z,67.500000
2023-04-27T07:54:01.501Z,67.500000
2023-04-27T07:55:02.786Z,78.750000
2023-04-27T07:56:01.284Z,78.750000
2023-04-27T07:57:00.236Z,78.750000
2023-04-27T07:58:00.354Z,56.250000
2023-04-27T07:59:00.210Z,56.250000
2023-04-27T08:00:05.057Z,56.250000
2023-04-27T08:01:00.220Z,56.250000
2023-04-27T08:02:17.772Z,78.750000
2023-04-27T08:03:09.460Z,78.750000
2023-04-27T08:04:00.622Z,78.750000
2023-04-27T08:05:03.987Z,101.250000
2023-04-27T08:06:00.734Z,101.250000
2023-04-27T08:07:00.616Z,101.250000
2023-04-27T08:08:00.578Z,67.500000
2023-04-27T08:09:00.300Z,67.500000
2023-04-27T08:10:04.962Z,67.500000
2023-04-27T08:11:00.298Z,67.500000
2023-04-27T08:12:00.440Z,67.500000
2023-04-27T08:13:00.332Z,67.500000
2023-04-27T08:14:00.893Z,67.500000
2023-04-27T08:15:02.760Z,45.000000
2023-04-27T08:16:00.889Z,45.000000
2023-04-27T08:17:00.439Z,45.000000
2023-04-27T08:18:00.500Z,90.000000
2023-04-27T08:19:00.895Z,90.000000
2023-04-27T08:20:03.412Z,56.250000
2023-04-27T08:21:00.400Z,56.250000
2023-04-27T08:22:00.449Z,67.500000
2023-04-27T08:23:00.382Z,67.500000
2023-04-27T08:24:00.958Z,67.500000
2023-04-27T08:25:03.026Z,56.250000
2023-04-27T08:26:00.466Z,56.250000
2023-04-27T08:27:00.419Z,56.250000
2023-04-27T08:28:00.478Z,45.000000
2023-04-27T08:29:01.987Z,45.000000
2023-04-27T08:30:03.341Z,33.750000
2023-04-27T08:31:00.498Z,33.750000
2023-04-27T08:32:00.520Z,33.750000
2023-04-27T08:33:00.493Z,33.750000
2023-04-27T08:35:08.540Z,45.000000
2023-04-27T08:36:00.660Z,45.000000
2023-04-27T08:37:00.468Z,45.000000
2023-04-27T08:38:00.599Z,45.000000
2023-04-27T08:39:00.489Z,45.000000
2023-04-27T08:40:03.312Z,67.500000
2023-04-27T08:41:07.416Z,67.500000
2023-04-27T08:42:00.601Z,67.500000
2023-04-27T08:43:00.510Z,67.500000
2023-04-27T08:44:00.883Z,67.500000
2023-04-27T08:45:03.367Z,67.500000
2023-04-27T08:46:00.592Z,67.500000
2023-04-27T08:47:00.539Z,67.500000
2023-04-27T08:48:00.634Z,56.250000
2023-04-27T08:49:00.550Z,56.250000
2023-04-27T08:50:03.625Z,56.250000
2023-04-27T08:51:00.755Z,56.250000
2023-04-27T08:52:00.622Z,67.500000
2023-04-27T08:53:00.574Z,67.500000
2023-04-27T08:54:00.671Z,67.500000
2023-04-27T08:55:50.957Z,67.500000
2023-04-27T08:56:00.654Z,67.500000
2023-04-27T08:57:00.609Z,67.500000
2023-04-27T08:58:00.983Z,67.500000
2023-04-27T08:59:00.626Z,67.500000
2023-04-27T09:00:06.889Z,78.750000
2023-04-27T09:01:00.620Z,78.750000
2023-04-27T09:02:00.953Z,78.750000
2023-04-27T09:03:00.752Z,78.750000
2023-04-27T09:04:01.151Z,78.750000
2023-04-27T09:05:03.462Z,56.250000
2023-04-27T09:06:05.608Z,56.250000
2023-04-27T09:07:00.631Z,56.250000
2023-04-27T09:08:01.955Z,56.250000
2023-04-27T09:09:00.714Z,56.250000
2023-04-27T09:10:08.934Z,56.250000
2023-04-27T09:11:00.673Z,78.750000
2023-04-27T09:12:01.879Z,78.750000
2023-04-27T09:13:00.673Z,90.000000
2023-04-27T09:14:02.102Z,90.000000
2023-04-27T09:15:03.382Z,90.000000
2023-04-27T09:16:01.964Z,78.750000
2023-04-27T09:17:00.685Z,78.750000
2023-04-27T09:18:01.757Z,11.250000
2023-04-27T09:19:00.694Z,11.250000
2023-04-27T09:20:03.758Z,22.500000
2023-04-27T09:21:00.729Z,22.500000
2023-04-27T09:22:01.108Z,22.500000
2023-04-27T09:23:00.723Z,33.750000
2023-04-27T09:24:00.910Z,33.750000
2023-04-27T09:25:03.125Z,33.750000
2023-04-27T09:26:00.813Z,33.750000
2023-04-27T09:27:01.098Z,33.750000
2023-04-27T09:28:00.979Z,33.750000
2023-04-27T09:29:00.753Z,33.750000
2023-04-27T09:30:05.512Z,33.750000
2023-04-27T09:31:00.777Z,33.750000
2023-04-27T09:32:00.955Z,33.750000
2023-04-27T09:33:00.850Z,33.750000
2023-04-27T09:34:01.061Z,90.000000
2023-04-27T09:35:03.284Z,90.000000
2023-04-27T09:36:03.988Z,22.500000
2023-04-27T09:37:00.812Z,22.500000
2023-04-27T09:38:00.907Z,78.750000
2023-04-27T09:39:00.839Z,78.750000
2023-04-27T09:40:04.207Z,67.500000
2023-04-27T09:41:00.865Z,67.500000
2023-04-27T09:42:01.995Z,67.500000
2023-04-27T09:43:00.865Z,67.500000
2023-04-27T09:44:00.963Z,67.500000
2023-04-27T09:45:03.558Z,67.500000
2023-04-27T09:46:01.176Z,67.500000
2023-04-27T09:47:00.886Z,67.500000
2023-04-27T09:48:01.043Z,67.500000
2023-04-27T09:49:00.898Z,67.500000
2023-04-27T09:50:04.166Z,22.500000
2023-04-27T09:51:00.950Z,22.500000
2023-04-27T09:52:01.147Z,22.500000
2023-04-27T09:53:00.939Z,11.250000
2023-04-27T09:54:01.074Z,11.250000
2023-04-27T09:55:04.339Z,11.250000
2023-04-27T09:56:01.124Z,90.000000
2023-04-27T09:57:01.001Z,90.000000
2023-04-27T09:58:01.162Z,56.250000
2023-04-27T09:59:00.993Z,56.250000
2023-04-27T10:00:03.841Z,56.250000
2023-04-27T10:01:01.212Z,11.250000
2023-04-27T10:02:07.203Z,11.250000
2023-04-27T10:03:01.217Z,11.250000
2023-04-27T10:04:01.367Z,67.500000
2023-04-27T10:05:03.792Z,67.500000
2023-04-27T10:06:01.422Z,67.500000
2023-04-27T10:07:01.104Z,33.750000
2023-04-27T10:08:01.461Z,33.750000
2023-04-27T10:09:01.119Z,67.500000
2023-04-27T10:10:04.108Z,67.500000
2023-04-27T10:11:01.151Z,56.250000
2023-04-27T10:12:04.334Z,56.250000
2023-04-27T10:13:01.183Z,56.250000
2023-04-27T10:14:01.445Z,33.750000
2023-04-27T10:15:03.665Z,33.750000
2023-04-27T10:16:01.270Z,56.250000
2023-04-27T10:17:01.311Z,56.250000
2023-04-27T10:18:01.613Z,56.250000
2023-04-27T10:19:01.184Z,33.750000
2023-04-27T10:20:05.106Z,33.750000
2023-04-27T10:21:00.213Z,22.500000
2023-04-27T10:22:00.462Z,22.500000
2023-04-27T10:23:00.225Z,22.500000
2023-04-27T10:24:01.549Z,22.500000
2023-04-27T10:25:03.708Z,22.500000
2023-04-27T10:26:00.404Z,22.500000
2023-04-27T10:27:00.261Z,22.500000
2023-04-27T10:28:00.350Z,22.500000
2023-04-27T10:29:00.253Z,78.750000
2023-04-27T10:30:03.136Z,78.750000
2023-04-27T10:31:00.338Z,45.000000
2023-04-27T10:32:00.404Z,45.000000
2023-04-27T10:33:00.369Z,90.000000
2023-04-27T10:34:00.408Z,90.000000
2023-04-27T10:35:03.379Z,90.000000
2023-04-27T10:36:00.493Z,101.250000
2023-04-27T10:37:00.385Z,101.250000
2023-04-27T10:38:01.443Z,101.250000
2023-04-27T10:39:00.420Z,56.250000
2023-04-27T10:40:06.531Z,56.250000
2023-04-27T10:41:00.364Z,45.000000
2023-04-27T10:42:01.123Z,45.000000
2023-04-27T10:43:00.381Z,78.750000
2023-04-27T10:44:00.446Z,78.750000
2023-04-27T10:45:02.849Z,78.750000
2023-04-27T10:46:00.495Z,67.500000
2023-04-27T10:47:00.393Z,67.500000
2023-04-27T10:48:01.354Z,67.500000
2023-04-27T10:49:00.414Z,67.500000
2023-04-27T10:50:04.256Z,67.500000
2023-04-27T10:51:00.448Z,56.250000
2023-04-27T10:52:01.912Z,56.250000
2023-04-27T10:53:01.046Z,56.250000
2023-04-27T10:54:00.568Z,78.750000
2023-04-27T10:55:02.939Z,78.750000
2023-04-27T10:56:03.620Z,78.750000
2023-04-27T10:57:00.471Z,45.000000
2023-04-27T10:58:00.558Z,45.000000
2023-04-27T10:59:00.480Z,56.250000
2023-04-27T11:00:03.481Z,56.250000
2023-04-27T11:01:00.507Z,56.250000
2023-04-27T11:02:00.625Z,11.250000
2023-04-27T11:03:00.589Z,11.250000
2023-04-27T11:04:00.634Z,56.250000
2023-04-27T11:05:03.819Z,56.250000
2023-04-27T11:06:00.616Z,67.500000
2023-04-27T11:07:00.526Z,67.500000
2023-04-27T11:08:00.650Z,67.500000
2023-04-27T11:09:00.574Z,22.500000
2023-04-27T11:10:04.144Z,22.500000
2023-04-27T11:11:00.596Z,22.500000
2023-04-27T11:12:00.700Z,78.750000
2023-04-27T11:13:00.567Z,78.750000
2023-04-27T11:14:00.847Z,45.000000
2023-04-27T11:15:03.588Z,45.000000
2023-04-27T11:16:00.738Z,45.000000
2023-04-27T11:17:00.588Z,45.000000
2023-04-27T11:18:00.837Z,45.000000
2023-04-27T11:19:00.617Z,45.000000
2023-04-27T11:20:03.954Z,45.000000
2023-04-27T11:21:00.631Z,45.000000
2023-04-27T11:22:00.726Z,45.000000
2023-04-27T11:23:00.646Z,45.000000
2023-04-27T11:24:02.045Z,45.000000
2023-04-27T11:25:03.285Z,78.750000
2023-04-27T11:26:00.728Z,78.750000
2023-04-27T11:27:00.675Z,56.250000
2023-04-27T11:28:00.768Z,56.250000
2023-04-27T11:29:00.689Z,78.750000
2023-04-27T11:30:04.056Z,78.750000
2023-04-27T11:31:00.816Z,78.750000
2023-04-27T11:32:00.894Z,22.500000
2023-04-27T11:33:00.734Z,22.500000
2023-04-27T11:34:00.803Z,22.500000
2023-04-27T11:35:03.219Z,45.000000